Time;durP1;ratioP1;P1;durP2;ratioP2;P2;SDS_P1;SDS_P2;PMS_P1;PMS_P2;Temp;Humidity;BMP_temperature;BMP_pressure;BME280_temperature;BME280_humidity;BME280_pressure;Samples;Min_cycle;Max_cycle;Signal;HPM_P1;HPM_P2
2023/05/10 17:12:02;;;;;;;7.03;2.70;;;17.40;84.30;;;;;;4611717;19;21064;-22
2023/05/10 17:15:31;;;;;;;9.55;6.13;;;17.00;84.80;;;;;;4607868;19;20022;-23
2023/05/10 17:17:02;;;;;;;17.65;12.52;;;16.90;83.70;;;;;;4611356;19;20100;-22
2023/05/10 17:18:34;;;;;;;;;;;16.80;84.50;;;;;;4612293;19;20006;-22
2023/05/10 17:20:06;;;;;;;13.70;9.82;;;16.80;87.40;;;;;;4610354;19;19918;-22
2023/05/10 17:21:37;;;;;;;7.50;4.22;;;16.70;85.60;;;;;;4612451;19;20018;-22
2023/05/10 17:23:09;;;;;;;9.38;5.63;;;16.70;85.40;;;;;;4571825;19;20022;-24
2023/05/10 17:24:40;;;;;;;10.02;5.78;;;16.70;84.20;;;;;;4611831;19;20040;-22
2023/05/10 17:26:11;;;;;;;8.18;3.22;;;16.60;85.80;;;;;;4567407;19;20377;-22
2023/05/10 17:27:44;;;;;;;7.18;3.40;;;16.60;84.20;;;;;;4612341;19;20025;-22
2023/05/10 17:29:15;;;;;;;3.40;2.28;;;16.60;84.70;;;;;;4611687;19;20018;-27
2023/05/10 17:30:46;;;;;;;5.25;2.10;;;16.60;87.80;;;;;;4609614;19;20003;-29
2023/05/10 17:32:17;;;;;;;4.95;2.90;;;16.90;89.00;;;;;;4610603;19;20066;-25
2023/05/10 17:33:48;;;;;;;3.88;2.80;;;17.20;89.20;;;;;;4612392;19;20014;-25
2023/05/10 17:35:20;;;;;;;6.07;3.00;;;17.40;87.50;;;;;;4558697;19;20349;-26
2023/05/10 17:36:52;;;;;;;6.65;2.33;;;17.50;86.60;;;;;;4608542;19;20098;-25
2023/05/10 17:38:23;;;;;;;;;;;17.70;90.00;;;;;;4611208;19;20018;-26
2023/05/10 17:39:54;;;;;;;4.47;2.60;;;17.80;84.90;;;;;;4608974;19;19956;-26
2023/05/10 17:41:26;;;;;;;4.32;2.60;;;17.80;85.60;;;;;;4610547;19;20014;-30
2023/05/10 17:42:58;;;;;;;4.00;2.20;;;17.70;85.20;;;;;;4609376;19;20042;-25
2023/05/10 17:44:30;;;;;;;6.43;2.38;;;17.70;85.90;;;;;;4610453;19;20049;-25
2023/05/10 17:46:02;;;;;;;3.80;2.50;;;17.70;85.30;;;;;;4609426;19;20018;-26
2023/05/10 17:47:33;;;;;;;4.32;2.42;;;17.70;85.00;;;;;;4609890;19;20082;-26
2023/05/10 17:49:04;;;;;;;4.90;2.70;;;17.70;85.00;;;;;;4609961;19;20018;-31
2023/05/10 17:50:41;;;;;;;5.97;3.15;;;17.70;85.50;;;;;;4608201;19;20018;-29
2023/05/10 17:52:13;;;;;;;5.00;3.17;;;17.80;84.50;;;;;;4610086;19;20025;-26
2023/05/10 17:53:44;;;;;;;6.03;3.33;;;17.70;85.20;;;;;;4609465;19;20483;-26
2023/05/10 17:55:15;;;;;;;6.20;2.95;;;17.70;84.30;;;;;;4610144;19;20080;-29
2023/05/10 17:57:17;;;;;;;4.38;2.95;;;17.70;85.90;;;;;;4609116;19;20435;-30
2023/05/10 17:58:49;;;;;;;;;;;17.70;84.40;;;;;;4609677;19;20011;-26
2023/05/10 18:00:20;;;;;;;5.70;3.37;;;17.70;84.30;;;;;;4609930;19;19945;-26
2023/05/10 18:01:51;;;;;;;4.70;3.15;;;17.70;85.60;;;;;;4608503;19;20229;-26
2023/05/10 18:03:22;;;;;;;6.10;3.30;;;17.70;85.20;;;;;;4608512;19;20014;-25
2023/05/10 18:04:54;;;;;;;5.60;2.90;;;17.60;85.20;;;;;;4608204;19;20346;-25
2023/05/10 18:06:25;;;;;;;7.18;3.75;;;17.70;85.30;;;;;;4610370;19;20015;-29
2023/05/10 18:07:57;;;;;;;4.93;3.60;;;17.60;85.20;;;;;;4609581;19;20070;-27
2023/05/10 18:09:29;;;;;;;6.97;3.83;;;17.60;85.40;;;;;;4610407;19;20015;-28
2023/05/10 18:11:03;;;;;;;6.43;4.25;;;17.60;85.80;;;;;;4610451;19;20010;-26
2023/05/10 18:12:36;;;;;;;7.43;4.35;;;17.60;86.00;;;;;;4611029;19;20074;-24
2023/05/10 18:14:08;;;;;;;6.72;4.13;;;17.50;86.50;;;;;;4610699;19;20010;-30
2023/05/10 18:15:40;;;;;;;8.10;3.80;;;17.50;86.50;;;;;;4609780;19;20031;-29
2023/05/10 18:17:11;;;;;;;7.22;3.97;;;17.50;87.60;;;;;;4610430;19;20482;-26
2023/05/10 18:18:44;;;;;;;7.35;4.95;;;17.60;86.50;;;;;;4608666;19;20457;-26
2023/05/10 18:20:15;;;;;;;6.88;3.60;;;17.50;90.70;;;;;;4610665;19;20032;-26
2023/05/10 18:21:47;;;;;;;5.50;3.60;;;17.80;92.20;;;;;;4610009;19;20364;-27
2023/05/10 18:23:19;;;;;;;7.03;3.28;;;18.10;92.20;;;;;;4593091;19;20103;-26
2023/05/10 18:24:52;;;;;;;8.25;5.22;;;18.30;91.20;;;;;;4592597;19;20014;-26
2023/05/10 18:26:25;;;;;;;9.60;5.70;;;18.40;87.00;;;;;;4593028;19;20011;-27
2023/05/10 18:27:59;;;;;;;15.45;8.63;;;18.20;85.70;;;;;;4593534;19;20567;-25
2023/05/10 18:29:32;;;;;;;16.50;9.00;;;17.90;87.20;;;;;;4592891;19;20046;-25
2023/05/10 18:31:04;;;;;;;11.15;6.80;;;17.70;87.50;;;;;;4592298;19;20373;-30
2023/05/10 18:32:37;;;;;;;10.27;6.30;;;17.60;87.50;;;;;;4593259;19;20003;-26
2023/05/10 18:34:08;;;;;;;9.50;7.40;;;17.50;87.30;;;;;;4593453;19;20006;-30
2023/05/10 18:35:39;;;;;;;12.77;9.48;;;17.50;87.40;;;;;;4594004;19;20019;-25
2023/05/10 18:37:14;;;;;;;13.68;11.32;;;17.40;87.10;;;;;;4591825;19;20007;-26
2023/05/10 18:38:48;;;;;;;11.52;9.75;;;17.30;87.30;;;;;;4592771;19;20018;-26
2023/05/10 18:40:20;;;;;;;9.18;8.25;;;17.30;87.30;;;;;;4593360;19;20010;-26
2023/05/10 18:41:52;;;;;;;8.65;6.85;;;17.30;87.20;;;;;;4593450;19;20333;-26
2023/05/10 18:43:23;;;;;;;6.50;5.85;;;17.20;87.50;;;;;;4591606;19;20014;-27
2023/05/10 18:44:55;;;;;;;8.75;5.50;;;17.20;87.60;;;;;;4592857;19;20006;-25
2023/05/10 18:46:26;;;;;;;11.38;5.18;;;17.20;87.80;;;;;;4592886;19;20019;-26
2023/05/10 18:48:02;;;;;;;11.32;4.82;;;17.20;87.10;;;;;;4593038;19;20002;-25
2023/05/10 18:49:33;;;;;;;7.18;4.65;;;17.10;87.70;;;;;;4592527;19;20021;-26
2023/05/10 18:51:05;;;;;;;6.70;4.30;;;17.30;87.00;;;;;;4591823;19;20095;-26
2023/05/10 18:52:36;;;;;;;10.23;4.65;;;17.30;86.30;;;;;;4593385;19;20003;-25
2023/05/10 18:54:08;;;;;;;8.30;4.43;;;17.30;86.60;;;;;;4592527;19;20014;-25
2023/05/10 18:55:41;;;;;;;7.32;4.72;;;17.20;86.40;;;;;;4591476;19;20010;-28
2023/05/10 18:57:12;;;;;;;8.07;4.55;;;17.20;86.90;;;;;;4592231;19;20015;-26
2023/05/10 18:58:44;;;;;;;6.88;4.63;;;17.10;87.50;;;;;;4591890;19;20061;-26
2023/05/10 19:00:15;;;;;;;8.23;4.13;;;17.10;87.20;;;;;;4591921;19;20015;-26
2023/05/10 19:01:46;;;;;;;7.25;4.60;;;17.10;87.40;;;;;;4592635;19;20483;-25
2023/05/10 19:03:18;;;;;;;7.90;5.03;;;17.10;87.90;;;;;;4593037;19;20014;-25
2023/05/10 19:04:50;;;;;;;7.60;5.40;;;17.10;87.30;;;;;;4591766;19;20087;-26
2023/05/10 19:06:21;;;;;;;9.13;5.30;;;17.10;87.00;;;;;;4591966;19;20482;-25
2023/05/10 19:07:55;;;;;;;9.63;5.18;;;17.10;86.70;;;;;;4592305;19;20014;-27
2023/05/10 19:09:26;;;;;;;7.18;5.00;;;17.20;86.70;;;;;;4590485;19;20055;-26
2023/05/10 19:11:00;;;;;;;7.15;4.82;;;17.20;86.80;;;;;;4587116;19;20014;-25
2023/05/10 19:12:32;;;;;;;8.50;5.03;;;17.10;86.80;;;;;;4590794;19;20128;-25
2023/05/10 19:14:04;;;;;;;;;;;17.20;86.60;;;;;;4592792;19;20043;-27
2023/05/10 19:15:35;;;;;;;7.72;4.20;;;17.20;86.80;;;;;;4590242;19;19914;-24
2023/05/10 19:17:07;;;;;;;6.85;4.38;;;17.20;86.80;;;;;;4592904;19;20010;-26
2023/05/10 19:18:38;;;;;;;9.40;4.68;;;17.20;86.50;;;;;;4590093;19;20018;-30
2023/05/10 19:20:10;;;;;;;5.97;4.35;;;17.30;86.70;;;;;;4591600;19;20029;-29
2023/05/10 19:21:41;;;;;;;9.27;4.35;;;17.30;86.20;;;;;;4591542;19;20021;-32
2023/05/10 19:23:12;;;;;;;9.95;4.72;;;17.30;86.90;;;;;;4592255;19;20391;-26
2023/05/10 19:24:44;;;;;;;6.60;4.75;;;17.40;86.30;;;;;;4591606;19;20018;-29
2023/05/10 19:26:15;;;;;;;7.85;4.53;;;17.40;86.70;;;;;;4590677;19;20039;-27
2023/05/10 19:27:47;;;;;;;7.70;4.55;;;17.40;87.10;;;;;;4593075;19;20018;-28
2023/05/10 19:29:19;;;;;;;8.25;4.25;;;17.40;86.60;;;;;;4591582;19;20027;-26
2023/05/10 19:30:52;;;;;;;6.45;4.00;;;17.30;87.10;;;;;;4589230;19;20014;-27
2023/05/10 19:32:23;;;;;;;7.80;4.00;;;17.30;86.20;;;;;;4592588;19;20015;-26
2023/05/10 19:33:54;;;;;;;6.88;4.10;;;17.30;86.80;;;;;;4590824;19;20010;-32
2023/05/10 19:35:25;;;;;;;5.95;3.78;;;17.30;86.90;;;;;;4589996;19;20014;-27
2023/05/10 19:36:57;;;;;;;7.90;3.72;;;17.30;87.10;;;;;;4592501;19;20011;-27
2023/05/10 19:38:29;;;;;;;7.03;3.40;;;17.20;86.40;;;;;;4592016;19;20460;-27
2023/05/10 19:40:00;;;;;;;;;;;17.20;86.30;;;;;;4591144;19;20368;-25
2023/05/10 19:41:31;;;;;;;9.07;3.80;;;17.20;86.70;;;;;;4590109;19;19931;-30
2023/05/10 19:43:03;;;;;;;5.53;3.10;;;17.20;86.40;;;;;;4590763;19;20011;-26
2023/05/10 19:44:34;;;;;;;8.32;3.83;;;17.20;86.30;;;;;;4589770;19;20074;-28
2023/05/10 19:46:07;;;;;;;4.55;2.72;;;17.10;85.80;;;;;;4591875;19;20018;-28
2023/05/10 19:47:41;;;;;;;6.10;3.35;;;17.10;86.20;;;;;;4591534;19;20021;-30
2023/05/10 19:49:13;;;;;;;6.65;3.58;;;17.10;86.10;;;;;;4591209;19;20014;-29
2023/05/10 19:50:44;;;;;;;8.52;3.92;;;17.10;86.40;;;;;;4592377;19;20010;-27
2023/05/10 19:52:16;;;;;;;5.75;3.60;;;17.00;86.50;;;;;;4591196;19;20029;-25
2023/05/10 19:53:50;;;;;;;6.63;4.30;;;17.00;86.80;;;;;;4591494;19;20018;-24
2023/05/10 19:55:25;;;;;;;;;;;16.90;86.70;;;;;;4587453;19;20011;-26
2023/05/10 19:56:56;;;;;;;6.55;3.55;;;16.90;86.20;;;;;;4590366;19;20339;-26
2023/05/10 19:58:28;;;;;;;6.32;3.58;;;16.90;86.30;;;;;;4591054;19;20013;-26
2023/05/10 20:00:00;;;;;;;6.60;3.67;;;16.90;86.60;;;;;;4589046;19;20014;-25
2023/05/10 20:01:31;;;;;;;6.95;3.53;;;16.90;86.80;;;;;;4591482;19;20070;-26
2023/05/10 20:03:04;;;;;;;;;;;16.90;85.80;;;;;;4590844;19;20054;-30
2023/05/10 20:04:35;;;;;;;5.57;3.25;;;16.90;85.60;;;;;;4589132;19;19914;-25
2023/05/10 20:06:06;;;;;;;4.82;3.10;;;16.90;86.00;;;;;;4591958;19;20038;-24
2023/05/10 20:07:39;;;;;;;5.47;3.10;;;16.90;86.40;;;;;;4590174;19;20010;-29
2023/05/10 20:09:10;;;;;;;5.72;3.42;;;16.90;85.80;;;;;;4590456;19;20345;-29
2023/05/10 20:10:42;;;;;;;6.07;3.30;;;16.90;86.20;;;;;;4590541;19;20026;-29
2023/05/10 20:12:14;;;;;;;6.32;3.13;;;16.90;87.00;;;;;;4591486;19;20025;-29
2023/05/10 20:13:45;;;;;;;5.30;2.88;;;16.90;86.40;;;;;;4590668;19;20014;-25
2023/05/10 20:15:18;;;;;;;6.32;3.40;;;16.90;86.60;;;;;;4590508;19;20018;-26
2023/05/10 20:16:50;;;;;;;4.60;2.60;;;16.80;86.00;;;;;;4590332;19;20018;-28
2023/05/10 20:18:21;;;;;;;6.20;3.35;;;16.80;85.90;;;;;;4590733;19;20007;-26
2023/05/10 20:19:52;;;;;;;4.38;2.80;;;16.70;85.90;;;;;;4589220;19;20024;-24
2023/05/10 20:21:25;;;;;;;5.85;3.13;;;16.70;85.80;;;;;;4591323;19;20334;-25
2023/05/10 20:22:56;;;;;;;5.40;2.90;;;16.60;85.80;;;;;;4590092;19;20030;-27
2023/05/10 20:24:27;;;;;;;5.90;2.97;;;16.60;85.90;;;;;;4588336;19;20650;-26
2023/05/10 20:25:58;;;;;;;4.60;2.95;;;16.60;86.30;;;;;;4591516;19;20025;-25
2023/05/10 20:27:29;;;;;;;6.00;3.10;;;16.60;85.80;;;;;;4589413;19;20475;-26
2023/05/10 20:29:01;;;;;;;5.78;3.10;;;16.60;86.10;;;;;;4590345;19;20018;-26
2023/05/10 20:30:32;;;;;;;6.45;3.42;;;16.60;86.10;;;;;;4589959;19;20019;-26
2023/05/10 20:32:03;;;;;;;4.78;2.85;;;16.50;86.40;;;;;;4589135;19;20034;-25
2023/05/10 20:33:34;;;;;;;6.32;3.67;;;16.50;86.50;;;;;;4588076;19;20018;-26
2023/05/10 20:35:08;;;;;;;5.68;3.60;;;16.50;86.90;;;;;;4588637;19;20073;-31
2023/05/10 20:36:42;;;;;;;9.68;3.50;;;16.50;86.40;;;;;;4590946;19;20503;-26
2023/05/10 20:38:14;;;;;;;4.43;3.00;;;16.50;86.20;;;;;;4589258;19;20010;-27
2023/05/10 20:39:47;;;;;;;6.35;3.63;;;16.50;87.20;;;;;;4590386;19;20014;-25
2023/05/10 20:41:20;;;;;;;6.38;3.28;;;16.50;87.20;;;;;;4590930;19;20070;-28
2023/05/10 20:42:52;;;;;;;8.00;3.22;;;16.50;87.20;;;;;;4590380;19;20171;-28
2023/05/10 20:44:25;;;;;;;6.13;3.47;;;16.50;86.90;;;;;;4590164;19;20074;-26
2023/05/10 20:45:56;;;;;;;5.78;3.67;;;16.40;86.50;;;;;;4588845;19;20357;-31
2023/05/10 20:47:28;;;;;;;6.03;3.30;;;16.40;86.60;;;;;;4590311;19;20011;-25
2023/05/10 20:48:59;;;;;;;5.50;3.15;;;16.40;86.30;;;;;;4589374;19;20022;-28
2023/05/10 20:50:32;;;;;;;7.50;3.30;;;16.50;86.70;;;;;;4589984;19;20014;-29
2023/05/10 20:52:04;;;;;;;6.18;3.00;;;16.40;86.60;;;;;;4587915;19;20396;-30
2023/05/10 20:53:36;;;;;;;;;;;16.40;86.90;;;;;;4589924;19;20025;-28
2023/05/10 20:55:08;;;;;;;4.32;2.70;;;16.40;87.50;;;;;;4590468;19;19988;-26
2023/05/10 20:56:41;;;;;;;5.45;3.30;;;16.40;87.80;;;;;;4590156;19;20350;-27
2023/05/10 20:58:13;;;;;;;4.13;2.80;;;16.40;87.50;;;;;;4590449;19;20027;-26
2023/05/10 20:59:46;;;;;;;8.50;3.33;;;16.40;87.40;;;;;;4590556;19;20010;-27
2023/05/10 21:01:17;;;;;;;7.68;3.42;;;16.40;87.70;;;;;;4590296;19;20011;-28
2023/05/10 21:02:49;;;;;;;6.00;2.88;;;16.30;86.70;;;;;;4589129;19;20527;-29
2023/05/10 21:04:20;;;;;;;7.28;2.97;;;16.30;86.30;;;;;;4590011;19;20014;-26
2023/05/10 21:05:52;;;;;;;5.35;2.60;;;16.30;86.80;;;;;;4588979;19;20010;-29
2023/05/10 21:07:24;;;;;;;4.65;2.88;;;16.20;86.80;;;;;;4590202;19;19998;-28
2023/05/10 21:08:55;;;;;;;5.43;3.00;;;16.20;86.90;;;;;;4590014;19;20011;-28
2023/05/10 21:10:30;;;;;;;6.18;3.20;;;16.20;87.00;;;;;;4590158;19;20010;-25
2023/05/10 21:12:02;;;;;;;8.02;3.30;;;16.20;87.00;;;;;;4589689;19;20009;-26
2023/05/10 21:13:33;;;;;;;6.75;3.10;;;16.20;86.60;;;;;;4588664;19;20014;-26
2023/05/10 21:15:05;;;;;;;5.57;3.40;;;16.20;86.90;;;;;;4587777;19;20015;-27
2023/05/10 21:16:36;;;;;;;4.38;2.53;;;16.10;86.90;;;;;;4589122;19;20034;-26
2023/05/10 21:18:09;;;;;;;5.35;3.00;;;16.20;87.50;;;;;;4590298;19;20023;-30
2023/05/10 21:19:41;;;;;;;5.75;2.92;;;16.20;87.20;;;;;;4589744;19;20013;-26
2023/05/10 21:21:13;;;;;;;5.40;3.25;;;16.10;86.70;;;;;;4589758;19;20011;-26
2023/05/10 21:22:46;;;;;;;4.57;3.00;;;16.10;87.00;;;;;;4589827;19;20003;-26
2023/05/10 21:24:17;;;;;;;6.45;3.08;;;16.10;86.90;;;;;;4588751;19;20027;-25
2023/05/10 21:25:48;;;;;;;5.95;3.75;;;16.10;86.70;;;;;;4589462;19;20014;-26
2023/05/10 21:27:21;;;;;;;4.75;2.92;;;16.00;87.30;;;;;;4588849;19;20479;-26
2023/05/10 21:28:57;;;;;;;5.57;2.97;;;16.10;87.00;;;;;;4588859;19;20157;-25
2023/05/10 21:30:28;;;;;;;5.28;3.03;;;16.00;87.10;;;;;;4589591;19;20006;-29
2023/05/10 21:32:00;;;;;;;6.32;3.30;;;16.00;86.50;;;;;;4588495;19;20368;-25
2023/05/10 21:33:31;;;;;;;4.70;2.60;;;16.00;87.60;;;;;;4589858;19;20505;-28
2023/05/10 21:35:03;;;;;;;5.10;3.20;;;16.00;87.60;;;;;;4590234;19;20017;-25
2023/05/10 21:36:34;;;;;;;4.32;2.60;;;16.00;87.30;;;;;;4589553;19;19998;-26
2023/05/10 21:38:08;;;;;;;5.18;2.90;;;16.00;87.60;;;;;;4589599;19;20007;-25
2023/05/10 21:39:40;;;;;;;5.57;2.95;;;16.00;87.20;;;;;;4589924;19;20010;-29
2023/05/10 21:41:13;;;;;;;6.40;2.80;;;16.00;87.50;;;;;;4588332;19;20007;-25
2023/05/10 21:42:49;;;;;;;6.93;2.85;;;16.00;87.20;;;;;;4589090;19;20081;-30
2023/05/10 21:44:23;;;;;;;7.32;3.00;;;16.00;87.40;;;;;;4588565;19;20014;-29
2023/05/10 21:45:56;;;;;;;6.07;3.58;;;16.00;87.80;;;;;;4589293;19;20049;-25
2023/05/10 21:47:28;;;;;;;4.30;2.90;;;16.00;87.70;;;;;;4589956;19;20011;-28
2023/05/10 21:48:59;;;;;;;6.72;3.72;;;16.00;87.60;;;;;;4589250;19;20011;-26
2023/05/10 21:50:31;;;;;;;6.20;3.30;;;15.90;87.10;;;;;;4589566;19;20479;-28
2023/05/10 21:52:04;;;;;;;6.30;3.65;;;16.00;87.20;;;;;;4588772;19;20014;-26
2023/05/10 21:53:37;;;;;;;5.22;3.13;;;15.90;87.40;;;;;;4588912;19;20017;-25
2023/05/10 21:55:10;;;;;;;5.55;3.20;;;16.00;87.50;;;;;;4586845;19;20127;-25
2023/05/10 21:56:41;;;;;;;6.85;3.20;;;16.00;88.40;;;;;;4588666;19;20010;-25
2023/05/10 21:58:13;;;;;;;7.43;3.40;;;16.00;88.00;;;;;;4589496;19;20003;-26
2023/05/10 21:59:59;;;;;;;5.07;3.10;;;16.00;88.00;;;;;;4593640;19;19991;-27
2023/05/10 22:01:32;;;;;;;5.30;3.25;;;15.90;88.10;;;;;;4593622;19;20468;-25
2023/05/10 22:03:04;;;;;;;5.75;3.08;;;15.90;88.10;;;;;;4594078;19;20467;-29
2023/05/10 22:04:37;;;;;;;5.68;2.92;;;15.90;87.70;;;;;;4592544;19;20019;-25
2023/05/10 22:06:09;;;;;;;7.55;3.30;;;15.90;87.30;;;;;;4593004;19;20450;-25
2023/05/10 22:07:40;;;;;;;6.57;3.17;;;15.90;87.40;;;;;;4593335;19;20014;-27
2023/05/10 22:09:17;;;;;;;6.20;3.30;;;15.90;87.60;;;;;;4593777;19;20021;-25
2023/05/10 22:10:50;;;;;;;5.45;3.00;;;15.90;87.10;;;;;;4593588;19;20089;-25
2023/05/10 22:12:23;;;;;;;7.15;3.33;;;15.90;87.80;;;;;;4593192;19;20471;-29
2023/05/10 22:13:55;;;;;;;4.72;2.75;;;15.80;87.10;;;;;;4592512;19;20031;-26
2023/05/10 22:15:27;;;;;;;7.50;3.78;;;15.90;88.00;;;;;;4591213;19;20345;-28
2023/05/10 22:17:00;;;;;;;5.18;3.10;;;15.90;87.80;;;;;;4593103;19;20085;-25
2023/05/10 22:18:31;;;;;;;5.70;3.10;;;15.80;87.70;;;;;;4592469;19;20522;-25
2023/05/10 22:20:03;;;;;;;4.38;3.10;;;15.80;87.70;;;;;;4592215;19;20014;-28
2023/05/10 22:21:34;;;;;;;5.57;2.83;;;15.80;87.70;;;;;;4592856;19;20011;-25
2023/05/10 22:23:06;;;;;;;5.10;3.17;;;15.80;87.70;;;;;;4593792;19;20460;-26
2023/05/10 22:24:37;;;;;;;;;;;15.80;87.90;;;;;;4594990;19;20030;-25
2023/05/10 22:26:09;;;;;;;4.60;3.00;;;15.80;88.30;;;;;;4593582;19;19990;-26
2023/05/10 22:27:40;;;;;;;6.45;3.30;;;15.80;87.90;;;;;;4593557;19;20006;-30
2023/05/10 22:29:11;;;;;;;;;;;15.80;88.00;;;;;;4595008;19;20070;-25
2023/05/10 22:30:44;;;;;;;6.15;2.97;;;15.80;87.80;;;;;;4593112;19;19915;-31
2023/05/10 22:32:17;;;;;;;5.90;2.92;;;15.80;87.60;;;;;;4592209;19;20358;-25
2023/05/10 22:33:48;;;;;;;5.07;3.67;;;15.80;87.70;;;;;;4592314;19;20015;-25
2023/05/10 22:35:21;;;;;;;7.53;3.30;;;15.80;87.70;;;;;;4593204;19;20062;-26
2023/05/10 22:36:55;;;;;;;6.10;3.22;;;15.80;88.10;;;;;;4592863;19;20091;-25
2023/05/10 22:38:27;;;;;;;5.45;3.47;;;15.80;87.70;;;;;;4591862;19;20010;-26
2023/05/10 22:39:59;;;;;;;5.22;3.22;;;15.70;87.90;;;;;;4591907;19;20640;-25
2023/05/10 22:41:31;;;;;;;6.95;3.15;;;15.70;87.50;;;;;;4592988;19;20077;-29
2023/05/10 22:43:03;;;;;;;5.47;3.00;;;15.70;87.30;;;;;;4592903;19;20044;-26
2023/05/10 22:44:35;;;;;;;;;;;15.70;87.60;;;;;;4592356;19;20017;-25
2023/05/10 22:46:06;;;;;;;6.70;3.47;;;15.70;88.20;;;;;;4592794;19;19981;-25
2023/05/10 22:47:38;;;;;;;5.20;3.25;;;15.70;88.30;;;;;;4593311;19;20464;-25
2023/05/10 22:49:09;;;;;;;6.45;3.05;;;15.70;88.50;;;;;;4593005;19;20026;-26
2023/05/10 22:50:41;;;;;;;5.93;3.22;;;15.70;88.40;;;;;;4591550;19;20412;-26
2023/05/10 22:52:12;;;;;;;5.22;3.45;;;15.70;87.90;;;;;;4591299;19;20006;-25
2023/05/10 22:53:44;;;;;;;8.32;3.80;;;15.70;88.40;;;;;;4592721;19;20038;-25
2023/05/10 22:55:16;;;;;;;5.63;3.22;;;15.60;87.90;;;;;;4591052;19;20035;-25
2023/05/10 22:56:47;;;;;;;;;;;15.60;87.90;;;;;;4592518;19;20019;-26
2023/05/10 22:58:37;;;;;;;6.80;3.58;;;15.60;87.50;;;;;;4592390;19;20336;-25
2023/05/10 23:00:09;;;;;;;8.77;4.30;;;15.70;87.60;;;;;;4593413;19;20092;-26
2023/05/10 23:01:41;;;;;;;5.15;3.45;;;15.60;88.50;;;;;;4592589;19;20018;-26
2023/05/10 23:03:14;;;;;;;5.35;3.33;;;15.60;88.00;;;;;;4592786;19;20040;-26
2023/05/10 23:04:45;;;;;;;5.15;3.08;;;15.60;87.90;;;;;;4592018;19;20006;-25
2023/05/10 23:06:17;;;;;;;4.32;2.83;;;15.60;87.40;;;;;;4592571;19;20077;-24
2023/05/10 23:07:52;;;;;;;5.45;3.28;;;15.60;88.10;;;;;;4592633;19;20014;-27
2023/05/10 23:09:24;;;;;;;5.75;3.25;;;15.60;88.00;;;;;;4592331;19;20014;-27
2023/05/10 23:10:59;;;;;;;6.47;3.65;;;15.60;88.30;;;;;;4591919;19;20086;-27
2023/05/10 23:12:30;;;;;;;6.03;3.28;;;15.60;87.80;;;;;;4592352;19;20007;-26
2023/05/10 23:14:06;;;;;;;6.07;3.03;;;15.60;88.00;;;;;;4590879;19;20042;-30
2023/05/10 23:15:38;;;;;;;6.20;3.17;;;15.60;87.40;;;;;;4591156;19;20026;-25
2023/05/10 23:17:11;;;;;;;4.88;2.85;;;15.60;88.00;;;;;;4591139;19;20018;-26
2023/05/10 23:18:42;;;;;;;7.05;3.78;;;15.50;87.60;;;;;;4592083;19;20074;-25
2023/05/10 23:20:14;;;;;;;6.57;3.55;;;15.60;88.30;;;;;;4592017;19;20014;-31
2023/05/10 23:21:45;;;;;;;5.15;3.72;;;15.60;87.80;;;;;;4592718;19;20021;-26
2023/05/10 23:23:19;;;;;;;6.32;3.63;;;15.50;88.00;;;;;;4592113;19;20011;-25
2023/05/10 23:24:51;;;;;;;6.43;3.42;;;15.60;88.40;;;;;;4589517;19;20006;-25
2023/05/10 23:26:23;;;;;;;8.63;3.42;;;15.50;88.30;;;;;;4590553;19;20017;-27
2023/05/10 23:27:57;;;;;;;6.32;3.53;;;15.60;87.60;;;;;;4590951;19;20007;-26
2023/05/10 23:29:30;;;;;;;7.32;3.42;;;15.50;87.90;;;;;;4591970;19;20017;-32
2023/05/10 23:31:03;;;;;;;5.38;3.00;;;15.50;88.70;;;;;;4591583;19;20479;-25
2023/05/10 23:32:34;;;;;;;5.82;3.28;;;15.60;87.90;;;;;;4592160;19;20007;-26
2023/05/10 23:34:06;;;;;;;6.18;2.92;;;15.60;88.20;;;;;;4591948;19;20002;-28
2023/05/10 23:35:38;;;;;;;7.20;3.45;;;15.60;88.60;;;;;;4592241;19;20006;-26
2023/05/10 23:37:10;;;;;;;4.90;3.17;;;15.50;88.90;;;;;;4591709;19;20007;-23
2023/05/10 23:38:41;;;;;;;5.68;4.15;;;15.50;88.30;;;;;;4590771;19;20033;-27
2023/05/10 23:40:14;;;;;;;7.18;4.43;;;15.50;88.20;;;;;;4592005;19;20002;-27
2023/05/10 23:41:45;;;;;;;9.00;3.88;;;15.50;88.60;;;;;;4591812;19;20021;-25
2023/05/10 23:43:18;;;;;;;5.55;3.85;;;15.50;88.60;;;;;;4589128;19;20476;-27
2023/05/10 23:44:51;;;;;;;7.18;4.10;;;15.50;88.40;;;;;;4590997;19;20035;-25
2023/05/10 23:46:22;;;;;;;8.48;4.15;;;15.50;88.30;;;;;;4592082;19;19999;-30
2023/05/10 23:47:53;;;;;;;7.63;4.30;;;15.50;88.60;;;;;;4591808;19;20006;-26
2023/05/10 23:49:24;;;;;;;6.97;4.50;;;15.50;88.30;;;;;;4591273;19;20400;-25
2023/05/10 23:50:57;;;;;;;7.97;4.97;;;15.50;88.40;;;;;;4591359;19;20014;-29
2023/05/10 23:52:28;;;;;;;7.38;4.60;;;15.50;88.80;;;;;;4592135;19;20010;-26
2023/05/10 23:53:59;;;;;;;8.30;4.47;;;15.50;88.50;;;;;;4591265;19;20035;-26
2023/05/10 23:55:31;;;;;;;7.30;3.78;;;15.50;88.50;;;;;;4591541;19;20066;-26
2023/05/10 23:57:03;;;;;;;6.25;3.90;;;15.50;88.40;;;;;;4589507;19;20104;-25
2023/05/10 23:58:34;;;;;;;5.53;3.45;;;15.50;88.40;;;;;;4590448;19;20029;-26
